Time;durP1;ratioP1;P1;durP2;ratioP2;P2;SDS_P1;SDS_P2;PMS_P1;PMS_P2;Temp;Humidity;BMP_temperature;BMP_pressure;BME280_temperature;BME280_humidity;BME280_pressure;Samples;Min_cycle;Max_cycle;Signal;HPM_P1;HPM_P2
2023/04/15 00:00:42;;;;;;;17.03;7.33;;;7.10;99.90;;;;;;5054717;28;20079;-75
2023/04/15 00:03:08;;;;;;;19.95;7.32;;;7.10;99.90;;;;;;5054393;28;20049;-75
2023/04/15 00:05:34;;;;;;;26.55;9.23;;;7.00;99.90;;;;;;5054536;28;20094;-75
2023/04/15 00:08:01;;;;;;;26.40;9.23;;;7.00;99.90;;;;;;5037531;28;20451;-75
2023/04/15 00:10:27;;;;;;;23.35;8.95;;;7.00;99.90;;;;;;5054723;28;20146;-74
2023/04/15 00:12:53;;;;;;;21.50;8.02;;;6.90;99.90;;;;;;5055765;28;20099;-75
2023/04/15 00:15:19;;;;;;;30.75;10.35;;;6.90;99.90;;;;;;5038268;28;20053;-74
2023/04/15 00:17:45;;;;;;;22.02;9.25;;;6.90;99.90;;;;;;5055561;28;20076;-74
2023/04/15 00:20:11;;;;;;;27.10;8.88;;;6.80;99.90;;;;;;5037631;28;20124;-75
2023/04/15 00:22:37;;;;;;;31.50;10.63;;;6.80;99.90;;;;;;5053983;28;20124;-74
2023/04/15 00:25:03;;;;;;;26.67;10.43;;;6.80;99.90;;;;;;5055332;28;20041;-75
2023/04/15 00:27:29;;;;;;;25.75;9.88;;;6.70;99.90;;;;;;5055364;28;20059;-74
2023/04/15 00:29:55;;;;;;;26.42;10.45;;;6.70;99.90;;;;;;5038692;28;20045;-76
2023/04/15 00:32:21;;;;;;;24.05;9.60;;;6.70;99.90;;;;;;5055510;28;20452;-74
2023/04/15 00:34:46;;;;;;;28.90;10.63;;;6.70;99.90;;;;;;5053934;28;20041;-75
2023/04/15 00:37:12;;;;;;;30.27;11.23;;;6.70;99.90;;;;;;5055112;28;20041;-75
2023/04/15 00:39:38;;;;;;;27.30;10.30;;;6.70;99.90;;;;;;5054630;28;20053;-74
2023/04/15 00:42:04;;;;;;;25.08;10.82;;;6.60;99.90;;;;;;5054763;28;20048;-74
2023/04/15 00:44:31;;;;;;;28.95;10.48;;;6.60;99.90;;;;;;5053696;28;20044;-74
2023/04/15 00:46:57;;;;;;;28.33;10.07;;;6.50;99.90;;;;;;5054676;28;20084;-75
2023/04/15 00:49:23;;;;;;;25.77;10.20;;;6.50;99.90;;;;;;5053696;28;20061;-73
2023/04/15 00:51:49;;;;;;;34.70;12.23;;;6.50;99.90;;;;;;5053762;28;20056;-75
2023/04/15 00:54:16;;;;;;;21.90;9.25;;;6.50;99.90;;;;;;5037858;28;20061;-74
2023/04/15 00:56:41;;;;;;;28.00;9.77;;;6.40;99.90;;;;;;5053382;28;20052;-75
2023/04/15 00:59:08;;;;;;;25.85;9.70;;;6.40;99.90;;;;;;5036379;28;20053;-74
2023/04/15 01:01:35;;;;;;;28.15;11.55;;;6.40;99.90;;;;;;5053073;28;20044;-74
2023/04/15 01:04:02;;;;;;;19.88;8.80;;;6.30;99.90;;;;;;5054142;28;20060;-75
2023/04/15 01:06:28;;;;;;;17.98;8.30;;;6.30;99.90;;;;;;5053144;28;20053;-72
2023/04/15 01:08:56;;;;;;;19.13;7.57;;;6.20;99.90;;;;;;5054237;28;20051;-75
2023/04/15 01:11:23;;;;;;;21.98;7.88;;;6.20;99.90;;;;;;5054228;28;20049;-74
2023/04/15 01:13:52;;;;;;;;;;;6.10;99.90;;;;;;5053736;28;20049;-74
2023/04/15 01:16:19;;;;;;;15.77;8.10;;;6.10;99.90;;;;;;5054032;28;19925;-73
2023/04/15 01:18:45;;;;;;;19.05;7.65;;;6.10;99.90;;;;;;5052831;28;20045;-74
2023/04/15 01:21:12;;;;;;;18.63;8.45;;;6.00;99.90;;;;;;5052464;28;20105;-74
2023/04/15 01:23:38;;;;;;;15.77;7.82;;;6.00;99.90;;;;;;5054180;28;20064;-74
2023/04/15 01:26:07;;;;;;;16.45;7.68;;;6.00;99.90;;;;;;5053073;28;20041;-73
2023/04/15 01:28:34;;;;;;;25.50;9.00;;;6.00;99.90;;;;;;5053561;28;20512;-75
2023/04/15 01:31:11;;;;;;;19.90;7.60;;;6.00;99.90;;;;;;5036597;28;20053;-74
2023/04/15 01:33:38;;;;;;;18.98;8.68;;;5.90;99.90;;;;;;5052500;28;20049;-76
2023/04/15 01:36:05;;;;;;;21.63;8.30;;;5.90;99.90;;;;;;5053777;28;20128;-75
2023/04/15 01:38:32;;;;;;;25.17;9.05;;;5.90;99.90;;;;;;5052556;28;20049;-72
2023/04/15 01:40:58;;;;;;;20.08;9.10;;;5.90;99.90;;;;;;5053102;28;20139;-74
2023/04/15 01:43:25;;;;;;;23.92;8.45;;;5.90;99.90;;;;;;5052666;28;20131;-75
2023/04/15 01:45:51;;;;;;;20.92;8.32;;;5.80;99.90;;;;;;5053885;28;20053;-74
2023/04/15 01:48:17;;;;;;;18.65;8.45;;;5.80;99.90;;;;;;5053150;28;20040;-75
2023/04/15 01:50:43;;;;;;;20.10;8.70;;;5.80;99.90;;;;;;5054542;28;20118;-75
2023/04/15 01:53:09;;;;;;;22.50;8.98;;;5.80;99.90;;;;;;5053690;28;20482;-74
2023/04/15 01:55:35;;;;;;;20.80;9.93;;;5.70;99.90;;;;;;5054529;28;20127;-71
2023/04/15 01:58:01;;;;;;;22.20;9.25;;;5.70;99.90;;;;;;5054443;28;20126;-74
2023/04/15 02:00:27;;;;;;;21.35;9.00;;;5.60;99.90;;;;;;5054019;28;20444;-75
2023/04/15 02:02:53;;;;;;;22.77;8.55;;;5.60;99.90;;;;;;5053404;28;20049;-74
2023/04/15 02:05:19;;;;;;;22.77;8.80;;;5.60;99.90;;;;;;5052151;28;20037;-74
2023/04/15 02:07:45;;;;;;;22.73;9.80;;;5.60;99.90;;;;;;5051957;28;20141;-73
2023/04/15 02:10:12;;;;;;;22.67;9.35;;;5.50;99.90;;;;;;5053823;28;20045;-75
2023/04/15 02:12:38;;;;;;;19.80;9.13;;;5.50;99.90;;;;;;5053353;28;20075;-73
2023/04/15 02:15:05;;;;;;;24.70;10.38;;;5.40;99.90;;;;;;5036280;28;20041;-74
2023/04/15 02:17:34;;;;;;;21.73;9.45;;;5.30;99.90;;;;;;5053244;28;20052;-73
2023/04/15 02:20:00;;;;;;;26.27;9.95;;;5.30;99.90;;;;;;5053176;28;20048;-74
2023/04/15 02:22:26;;;;;;;27.50;9.52;;;5.30;99.90;;;;;;5053205;28;20490;-75
2023/04/15 02:24:53;;;;;;;25.45;9.30;;;5.30;99.90;;;;;;5053612;28;20045;-73
2023/04/15 02:27:18;;;;;;;26.87;10.33;;;5.30;99.90;;;;;;5053160;28;20048;-76
2023/04/15 02:29:44;;;;;;;21.27;8.80;;;5.20;99.90;;;;;;5053443;28;20099;-73
2023/04/15 02:32:11;;;;;;;22.95;9.25;;;5.20;99.90;;;;;;5053052;28;20084;-75
2023/04/15 02:34:40;;;;;;;23.20;9.82;;;5.20;99.90;;;;;;5055880;28;20081;-75
2023/04/15 02:37:06;;;;;;;20.92;9.13;;;5.20;99.90;;;;;;5056354;28;20131;-74
2023/04/15 02:39:32;;;;;;;22.42;9.27;;;5.10;99.90;;;;;;5056931;28;20045;-74
2023/04/15 02:41:59;;;;;;;25.45;9.68;;;5.10;99.90;;;;;;5055901;28;20059;-75
2023/04/15 02:44:26;;;;;;;25.65;10.68;;;5.40;99.90;;;;;;5055965;28;20049;-74
2023/04/15 02:46:53;;;;;;;23.90;10.20;;;5.30;99.90;;;;;;5055601;28;20151;-75
2023/04/15 02:49:23;;;;;;;24.25;9.95;;;5.70;99.90;;;;;;5056850;28;20044;-75
2023/04/15 02:51:50;;;;;;;25.85;9.93;;;5.10;99.90;;;;;;5039152;28;20059;-73
2023/04/15 02:54:19;;;;;;;25.92;10.63;;;5.10;99.90;;;;;;5056233;28;20053;-76
2023/04/15 02:56:45;;;;;;;26.42;11.23;;;5.00;99.90;;;;;;5056962;28;20435;-74
2023/04/15 02:59:12;;;;;;;29.90;11.20;;;5.00;99.90;;;;;;5056259;28;20037;-73
2023/04/15 03:01:37;;;;;;;28.33;11.70;;;5.10;99.90;;;;;;5056794;28;20056;-76
2023/04/15 03:04:03;;;;;;;27.65;11.85;;;5.00;99.90;;;;;;5056484;28;20045;-75
2023/04/15 03:06:29;;;;;;;28.95;11.15;;;5.00;99.90;;;;;;5056447;28;20067;-75
2023/04/15 03:08:55;;;;;;;27.65;12.02;;;4.90;99.90;;;;;;5057286;28;20128;-75
2023/04/15 03:11:21;;;;;;;33.13;10.95;;;4.90;99.90;;;;;;5055336;28;20049;-73
2023/04/15 03:13:47;;;;;;;27.45;10.85;;;4.80;99.90;;;;;;5055409;28;20443;-74
2023/04/15 03:16:13;;;;;;;30.02;12.57;;;4.90;99.90;;;;;;5056473;28;20052;-75
2023/04/15 03:18:38;;;;;;;32.03;11.75;;;4.90;99.90;;;;;;5038789;28;20056;-74
2023/04/15 03:21:05;;;;;;;29.83;11.63;;;5.00;99.90;;;;;;5039544;28;20040;-74
2023/04/15 03:23:31;;;;;;;34.63;12.70;;;4.80;99.90;;;;;;5055202;28;20404;-73
2023/04/15 03:25:57;;;;;;;33.20;11.80;;;4.90;99.90;;;;;;5056280;28;20052;-74
2023/04/15 03:28:23;;;;;;;35.10;13.02;;;4.90;99.90;;;;;;5056249;28;20045;-74
2023/04/15 03:30:49;;;;;;;30.20;11.98;;;4.80;99.90;;;;;;5054902;28;20401;-73
2023/04/15 03:33:15;;;;;;;31.55;12.90;;;4.70;99.90;;;;;;5055505;28;20144;-75
2023/04/15 03:35:41;;;;;;;40.28;14.02;;;4.70;99.90;;;;;;5056116;28;20040;-74
2023/04/15 03:38:06;;;;;;;29.17;12.85;;;4.70;99.90;;;;;;5055904;28;20045;-74
2023/04/15 03:40:32;;;;;;;33.85;13.60;;;4.70;99.90;;;;;;5056334;28;20142;-75
2023/04/15 03:42:58;;;;;;;35.40;14.07;;;4.70;99.90;;;;;;5054471;28;20090;-74
2023/04/15 03:45:24;;;;;;;36.15;13.68;;;4.70;99.90;;;;;;5054943;28;20052;-74
2023/04/15 03:47:50;;;;;;;36.93;13.90;;;4.70;99.90;;;;;;5056754;28;20417;-72
2023/04/15 03:50:16;;;;;;;39.67;14.45;;;4.70;99.90;;;;;;5055844;28;20128;-74
2023/04/15 03:52:43;;;;;;;37.35;13.77;;;4.60;99.90;;;;;;5054890;28;20052;-74
2023/04/15 03:55:09;;;;;;;39.47;14.50;;;4.60;99.90;;;;;;5055953;28;20576;-73
2023/04/15 03:57:37;;;;;;;36.83;14.40;;;4.60;99.90;;;;;;5054519;28;20088;-75
2023/04/15 04:00:08;;;;;;;36.92;14.32;;;4.70;99.90;;;;;;5055025;28;20053;-75
2023/04/15 04:02:34;;;;;;;40.88;14.90;;;4.70;99.90;;;;;;5055828;28;20367;-73
2023/04/15 04:05:00;;;;;;;42.65;15.85;;;4.70;99.90;;;;;;5055420;28;20103;-73
2023/04/15 04:07:25;;;;;;;43.75;15.50;;;4.70;99.90;;;;;;5053993;28;20075;-75
2023/04/15 04:09:51;;;;;;;41.53;15.70;;;4.70;99.90;;;;;;5054361;28;20110;-73
2023/04/15 04:12:17;;;;;;;48.05;17.70;;;4.60;99.90;;;;;;5054584;28;20436;-74
2023/04/15 04:14:43;;;;;;;46.28;17.88;;;4.70;99.90;;;;;;5054070;28;20048;-74
2023/04/15 04:17:09;;;;;;;42.50;14.77;;;4.70;99.90;;;;;;5054943;28;20041;-74
2023/04/15 04:19:35;;;;;;;45.70;17.27;;;4.60;99.90;;;;;;5037441;28;20037;-75
2023/04/15 04:22:01;;;;;;;41.17;15.50;;;4.60;99.90;;;;;;5037739;28;20043;-74
2023/04/15 04:24:26;;;;;;;44.08;16.13;;;4.50;99.90;;;;;;5054296;28;20489;-78
2023/04/15 04:26:52;;;;;;;42.20;14.70;;;4.60;99.90;;;;;;5055143;28;20049;-74
2023/04/15 04:29:18;;;;;;;42.97;15.63;;;4.60;99.90;;;;;;5053936;28;20045;-74
2023/04/15 04:31:44;;;;;;;41.40;15.27;;;4.50;99.90;;;;;;5054775;28;20132;-75
2023/04/15 04:34:10;;;;;;;48.20;17.17;;;4.50;99.90;;;;;;5037815;28;20044;-74
2023/04/15 04:36:36;;;;;;;45.53;14.07;;;4.50;99.90;;;;;;5037394;28;20052;-74
2023/04/15 04:39:02;;;;;;;45.63;15.35;;;4.50;99.90;;;;;;5053637;28;20502;-73
2023/04/15 04:41:27;;;;;;;46.28;16.75;;;4.50;99.90;;;;;;5037316;28;20492;-75
2023/04/15 04:43:53;;;;;;;46.38;15.63;;;4.50;99.90;;;;;;5054808;28;20047;-75
2023/04/15 04:46:19;;;;;;;43.60;15.82;;;4.50;99.90;;;;;;5053487;28;20131;-74
2023/04/15 04:48:45;;;;;;;47.42;16.73;;;4.40;99.90;;;;;;5053911;28;20049;-74
2023/04/15 04:51:11;;;;;;;53.10;20.27;;;4.40;99.90;;;;;;5036693;28;20052;-75
2023/04/15 04:53:36;;;;;;;47.22;16.38;;;4.50;99.90;;;;;;5053584;28;20513;-74
2023/04/15 04:56:02;;;;;;;49.72;16.08;;;4.40;99.90;;;;;;5054200;28;20497;-75
2023/04/15 04:58:28;;;;;;;54.83;18.67;;;4.40;99.90;;;;;;5053241;28;20128;-74
2023/04/15 05:00:55;;;;;;;50.65;16.33;;;4.50;99.90;;;;;;5053431;28;20180;-76
2023/04/15 05:03:21;;;;;;;48.55;15.32;;;4.50;99.90;;;;;;5053587;28;20056;-74
2023/04/15 05:05:48;;;;;;;43.47;15.65;;;4.50;99.90;;;;;;5052778;28;20094;-75
2023/04/15 05:08:14;;;;;;;50.55;15.32;;;4.50;99.90;;;;;;5052779;28;20053;-74
2023/04/15 05:10:40;;;;;;;49.33;15.95;;;4.40;99.90;;;;;;5054061;28;20047;-75
2023/04/15 05:13:06;;;;;;;48.13;16.27;;;4.50;99.90;;;;;;5054156;28;20049;-73
2023/04/15 05:15:33;;;;;;;49.72;18.08;;;4.50;99.90;;;;;;5054184;28;20048;-74
2023/04/15 05:17:59;;;;;;;52.70;16.42;;;4.50;99.90;;;;;;5054126;28;20045;-74
2023/04/15 05:20:25;;;;;;;58.83;17.70;;;4.50;99.90;;;;;;5053092;28;20041;-74
2023/04/15 05:22:51;;;;;;;54.22;17.25;;;4.50;99.90;;;;;;5053704;28;20097;-74
2023/04/15 05:25:17;;;;;;;46.97;15.93;;;4.50;99.90;;;;;;5052968;28;20061;-72
2023/04/15 05:27:42;;;;;;;62.08;18.23;;;4.50;99.90;;;;;;5055238;28;20456;-74
2023/04/15 05:30:08;;;;;;;51.17;16.00;;;4.50;99.90;;;;;;5055050;28;20100;-73
2023/04/15 05:32:34;;;;;;;54.63;17.05;;;4.60;99.90;;;;;;5054732;28;20397;-74
2023/04/15 05:35:00;;;;;;;53.95;16.75;;;4.60;99.90;;;;;;5053154;28;20049;-74
2023/04/15 05:37:26;;;;;;;56.08;16.90;;;4.70;99.90;;;;;;5052645;28;20127;-74
2023/04/15 05:39:51;;;;;;;54.92;16.00;;;4.80;99.90;;;;;;5052605;28;20041;-76
2023/04/15 05:42:17;;;;;;;54.85;17.52;;;4.80;99.90;;;;;;5052464;28;20045;-75
2023/04/15 05:44:43;;;;;;;57.20;17.85;;;4.80;99.90;;;;;;5069599;28;20040;-77
2023/04/15 05:47:09;;;;;;;54.78;16.42;;;4.90;99.90;;;;;;5035849;28;20071;-75
2023/04/15 05:49:36;;;;;;;58.63;17.30;;;4.90;99.90;;;;;;5054210;28;20128;-76
2023/04/15 05:52:02;;;;;;;65.05;18.33;;;5.00;99.90;;;;;;5052516;28;20053;-75
2023/04/15 05:54:27;;;;;;;51.75;16.48;;;5.00;99.90;;;;;;5052061;28;20056;-75
2023/04/15 05:56:54;;;;;;;57.05;17.10;;;5.10;99.90;;;;;;5053589;28;20045;-74
2023/04/15 05:59:19;;;;;;;62.55;21.27;;;5.10;99.90;;;;;;5053380;28;20075;-77
2023/04/15 06:01:45;;;;;;;59.40;17.35;;;5.20;99.90;;;;;;5053472;28;20045;-75
2023/04/15 06:04:11;;;;;;;61.15;17.70;;;5.20;99.90;;;;;;5053470;28;20049;-76
2023/04/15 06:06:37;;;;;;;60.25;17.45;;;5.20;99.90;;;;;;5052040;28;20056;-75
2023/04/15 06:09:03;;;;;;;62.05;17.83;;;5.30;99.90;;;;;;5035505;28;20179;-74
2023/04/15 06:11:29;;;;;;;53.57;17.30;;;5.30;99.90;;;;;;5053165;28;20041;-74
2023/04/15 06:13:55;;;;;;;58.33;17.08;;;5.40;99.90;;;;;;5052126;28;20041;-75
2023/04/15 06:16:22;;;;;;;54.97;16.08;;;5.60;99.90;;;;;;5053258;28;20072;-74
2023/04/15 06:18:48;;;;;;;56.35;17.23;;;5.60;99.90;;;;;;5053691;28;20146;-75
2023/04/15 06:21:14;;;;;;;61.00;17.90;;;5.70;99.90;;;;;;5053578;28;20045;-73
2023/04/15 06:23:40;;;;;;;60.38;17.38;;;5.70;99.90;;;;;;5053202;28;20055;-74
2023/04/15 06:26:06;;;;;;;53.13;17.58;;;5.80;99.90;;;;;;5053264;28;20389;-74
2023/04/15 06:28:32;;;;;;;53.90;18.05;;;5.90;99.90;;;;;;5051900;28;20045;-74
2023/04/15 06:30:58;;;;;;;59.88;17.38;;;6.10;99.90;;;;;;5035524;28;20052;-74
2023/04/15 06:33:23;;;;;;;57.65;17.15;;;6.10;99.90;;;;;;5052931;28;20060;-73
2023/04/15 06:35:49;;;;;;;61.33;18.15;;;6.20;99.90;;;;;;5052398;28;20485;-73
2023/04/15 06:38:15;;;;;;;57.17;17.95;;;6.30;99.90;;;;;;5052958;28;20124;-73
2023/04/15 06:40:41;;;;;;;62.00;21.88;;;6.50;99.90;;;;;;5035460;28;20053;-75
2023/04/15 06:43:08;;;;;;;52.03;17.45;;;6.50;99.90;;;;;;5034936;28;20449;-74
2023/04/15 06:45:33;;;;;;;53.85;17.42;;;6.70;99.90;;;;;;5052444;28;20139;-74
2023/04/15 06:48:00;;;;;;;57.45;17.05;;;6.80;99.90;;;;;;5035841;28;20140;-74
2023/04/15 06:50:26;;;;;;;56.03;18.30;;;6.80;99.90;;;;;;5053075;28;20426;-77
2023/04/15 06:52:53;;;;;;;55.57;16.70;;;6.90;99.90;;;;;;5052734;28;20377;-74
2023/04/15 06:55:19;;;;;;;;;;;7.00;99.90;;;;;;5035701;28;20053;-73
2023/04/15 06:57:45;;;;;;;63.45;18.17;;;7.10;99.90;;;;;;5085549;28;19920;-75
2023/04/15 07:00:11;;;;;;;63.38;18.13;;;7.20;99.90;;;;;;5051302;28;20041;-74
2023/04/15 07:02:37;;;;;;;55.30;16.92;;;7.30;99.90;;;;;;5052770;28;20037;-75
2023/04/15 07:05:05;;;;;;;71.15;24.88;;;7.50;99.90;;;;;;5051636;28;20159;-76
2023/04/15 07:07:31;;;;;;;71.78;22.73;;;7.50;99.90;;;;;;5035010;28;20053;-74
2023/04/15 07:09:57;;;;;;;68.07;22.13;;;7.60;99.90;;;;;;5052266;28;20052;-74
2023/04/15 07:12:23;;;;;;;61.78;16.23;;;7.60;99.90;;;;;;5051418;28;20085;-72
2023/04/15 07:14:48;;;;;;;64.22;18.50;;;7.90;99.90;;;;;;5052981;28;20047;-75
2023/04/15 07:17:14;;;;;;;63.70;18.55;;;7.90;99.90;;;;;;5051996;28;20049;-73
2023/04/15 07:19:40;;;;;;;66.93;17.58;;;8.10;99.90;;;;;;5054541;28;20041;-74
2023/04/15 07:22:06;;;;;;;58.72;16.38;;;8.10;99.90;;;;;;5055315;28;20045;-74
2023/04/15 07:24:32;;;;;;;66.87;19.77;;;8.30;99.90;;;;;;5055782;28;20049;-75
2023/04/15 07:26:58;;;;;;;60.80;18.58;;;8.00;99.90;;;;;;5056217;28;20053;-73
2023/04/15 07:29:25;;;;;;;56.72;17.60;;;8.10;99.90;;;;;;5056242;28;20420;-75
2023/04/15 07:31:50;;;;;;;61.80;16.63;;;8.20;99.90;;;;;;5038301;28;20374;-73
2023/04/15 07:34:18;;;;;;;63.75;17.20;;;8.30;99.90;;;;;;5056445;28;20052;-74
2023/04/15 07:36:44;;;;;;;59.90;16.83;;;8.20;99.90;;;;;;5055380;28;20049;-75
2023/04/15 07:39:10;;;;;;;59.75;17.33;;;8.30;99.90;;;;;;5038664;28;20124;-74
2023/04/15 07:41:36;;;;;;;55.00;16.40;;;8.20;99.90;;;;;;5055259;28;20127;-73
2023/04/15 07:44:02;;;;;;;60.80;16.98;;;8.40;99.90;;;;;;5055035;28;20500;-73
2023/04/15 07:46:28;;;;;;;51.35;15.70;;;8.50;99.90;;;;;;5038284;28;20087;-72
2023/04/15 07:48:54;;;;;;;49.85;15.25;;;8.50;99.90;;;;;;5039367;28;20087;-75
2023/04/15 07:51:20;;;;;;;49.58;15.55;;;8.50;99.90;;;;;;5055265;28;20051;-74
2023/04/15 07:53:48;;;;;;;53.05;16.40;;;8.70;99.90;;;;;;5056043;28;20053;-73
2023/04/15 07:56:14;;;;;;;51.45;15.23;;;8.60;99.90;;;;;;5037440;28;20049;-73
2023/04/15 07:58:40;;;;;;;54.38;16.48;;;8.80;99.90;;;;;;5055537;28;20041;-73
2023/04/15 08:01:06;;;;;;;45.67;13.95;;;8.80;99.90;;;;;;5055294;28;20485;-73
2023/04/15 08:03:32;;;;;;;42.57;13.87;;;8.70;99.90;;;;;;5055537;28;20049;-74
2023/04/15 08:05:58;;;;;;;43.83;13.77;;;8.70;99.90;;;;;;5037853;28;20071;-74
2023/04/15 08:08:25;;;;;;;40.42;13.38;;;8.90;99.90;;;;;;5054091;28;20092;-72
2023/04/15 08:10:51;;;;;;;41.97;12.98;;;9.00;99.90;;;;;;5056008;28;20060;-76
2023/04/15 08:13:17;;;;;;;45.50;15.65;;;9.10;99.90;;;;;;5056309;28;20067;-73
2023/04/15 08:15:43;;;;;;;48.47;14.07;;;9.10;99.90;;;;;;5056100;28;20207;-73
2023/04/15 08:18:08;;;;;;;44.25;16.60;;;9.10;99.90;;;;;;5057756;28;20072;-75
2023/04/15 08:20:34;;;;;;;42.17;12.68;;;9.10;99.90;;;;;;5038379;28;20428;-74
2023/04/15 08:23:00;;;;;;;43.15;16.05;;;9.40;99.90;;;;;;5055861;28;20049;-75
2023/04/15 08:25:26;;;;;;;38.03;11.60;;;9.30;99.90;;;;;;5055516;28;20052;-74
2023/04/15 08:27:56;;;;;;;40.83;14.93;;;9.60;99.90;;;;;;5037794;28;20132;-74
2023/04/15 08:30:22;;;;;;;43.17;15.15;;;9.70;99.90;;;;;;5055164;28;20128;-77
2023/04/15 08:32:49;;;;;;;29.80;9.95;;;9.80;99.90;;;;;;5053741;28;20049;-73
2023/04/15 08:35:14;;;;;;;38.05;14.15;;;10.00;99.90;;;;;;5055005;28;20389;-72
2023/04/15 08:37:40;;;;;;;40.28;12.55;;;9.90;99.90;;;;;;5054831;28;20048;-74
2023/04/15 08:40:07;;;;;;;38.55;11.68;;;10.00;99.90;;;;;;5053765;28;20041;-73
2023/04/15 08:42:42;;;;;;;35.10;14.10;;;10.30;99.90;;;;;;5056607;28;20389;-72
2023/04/15 08:45:12;;;;;;;23.67;8.55;;;9.90;99.90;;;;;;5038862;28;20048;-74
2023/04/15 08:47:39;;;;;;;25.02;7.53;;;10.10;99.90;;;;;;5056606;28;20501;-72
2023/04/15 08:50:08;;;;;;;27.98;8.15;;;9.80;99.90;;;;;;5056461;28;20049;-73
2023/04/15 08:52:34;;;;;;;22.15;8.15;;;9.70;99.90;;;;;;5055127;28;20045;-72
2023/04/15 08:55:02;;;;;;;22.83;7.82;;;9.70;99.90;;;;;;5053630;28;20045;-74
2023/04/15 08:57:28;;;;;;;33.72;10.93;;;9.80;99.90;;;;;;5056516;28;20053;-75
2023/04/15 08:59:57;;;;;;;24.73;8.68;;;9.50;99.90;;;;;;5054412;28;20374;-74
2023/04/15 09:02:25;;;;;;;21.92;7.80;;;9.70;99.90;;;;;;5053810;28;20041;-77
2023/04/15 09:04:50;;;;;;;25.67;8.85;;;9.80;99.90;;;;;;5053545;28;20052;-73
2023/04/15 09:07:16;;;;;;;23.02;7.57;;;9.90;99.90;;;;;;5036427;28;20060;-75
2023/04/15 09:09:42;;;;;;;20.20;7.00;;;10.20;99.90;;;;;;5055241;28;20110;-74
2023/04/15 09:12:09;;;;;;;19.35;5.80;;;10.20;99.90;;;;;;5054156;28;20053;-75
2023/04/15 09:14:35;;;;;;;24.25;6.70;;;10.00;99.90;;;;;;5054758;28;20382;-74
2023/04/15 09:17:03;;;;;;;17.05;5.50;;;10.20;99.90;;;;;;5053218;28;20041;-73
2023/04/15 09:19:29;;;;;;;17.15;6.68;;;10.20;99.90;;;;;;5053181;28;20401;-78
2023/04/15 09:21:57;;;;;;;17.40;6.15;;;10.10;99.90;;;;;;5053646;28;20053;-73
2023/04/15 09:24:24;;;;;;;23.10;7.53;;;10.10;99.90;;;;;;5055796;28;20041;-74
2023/04/15 09:26:54;;;;;;;;;;;9.90;99.90;;;;;;5037501;28;20087;-72
2023/04/15 09:29:25;;;;;;;20.98;6.18;;;9.80;99.90;;;;;;5054533;28;19944;-74
2023/04/15 09:31:51;;;;;;;18.15;5.30;;;9.90;99.90;;;;;;5054242;28;20456;-73
2023/04/15 09:34:18;;;;;;;14.57;4.78;;;10.00;99.90;;;;;;5054547;28;20092;-74
2023/04/15 09:36:47;;;;;;;26.97;9.10;;;9.90;99.90;;;;;;5055336;28;20051;-75
2023/04/15 09:39:13;;;;;;;24.85;6.72;;;9.70;99.90;;;;;;5055411;28;20052;-74
2023/04/15 09:41:39;;;;;;;17.38;6.68;;;9.80;99.90;;;;;;5053750;28;20045;-76
2023/04/15 09:44:06;;;;;;;18.08;6.40;;;9.70;99.90;;;;;;5054308;28;20049;-75
2023/04/15 09:46:44;;;;;;;14.23;5.13;;;9.70;99.90;;;;;;5054332;28;20045;-74
2023/04/15 09:49:11;;;;;;;18.40;6.55;;;9.80;99.90;;;;;;5052675;28;20048;-74
2023/04/15 09:51:37;;;;;;;13.07;4.95;;;9.90;99.90;;;;;;5052319;28;20397;-72
2023/04/15 09:54:03;;;;;;;19.83;6.07;;;9.90;99.90;;;;;;5052378;28;20075;-74
2023/04/15 09:56:37;;;;;;;17.87;5.97;;;10.00;99.90;;;;;;5054052;28;20084;-76
2023/04/15 09:59:07;;;;;;;20.92;6.43;;;9.70;99.90;;;;;;5052825;28;20055;-74
2023/04/15 10:01:33;;;;;;;12.55;4.57;;;9.70;99.90;;;;;;5052652;28;20142;-73
2023/04/15 10:04:02;;;;;;;12.43;3.92;;;10.00;99.90;;;;;;5052282;28;20492;-73
2023/04/15 10:06:28;;;;;;;16.50;4.47;;;10.00;99.90;;;;;;5052755;28;20041;-73
2023/04/15 10:08:56;;;;;;;11.82;3.53;;;9.90;99.90;;;;;;5053588;28;20083;-73
2023/04/15 10:11:23;;;;;;;10.32;3.17;;;9.90;99.90;;;;;;5054086;28;20048;-73
2023/04/15 10:13:50;;;;;;;8.68;2.67;;;10.30;99.90;;;;;;5052020;28;20446;-74
2023/04/15 10:16:19;;;;;;;11.30;3.05;;;10.30;99.90;;;;;;5053161;28;20084;-71
2023/04/15 10:18:54;;;;;;;9.20;3.38;;;10.60;99.90;;;;;;5051798;28;20052;-73
2023/04/15 10:21:22;;;;;;;9.40;3.08;;;10.50;99.90;;;;;;5053224;28;20045;-74
2023/04/15 10:23:48;;;;;;;8.27;3.25;;;10.40;99.90;;;;;;5053836;28;20084;-74
2023/04/15 10:26:16;;;;;;;8.57;2.50;;;10.10;99.90;;;;;;5053091;28;20158;-73
2023/04/15 10:28:42;;;;;;;7.28;2.70;;;10.00;99.90;;;;;;5051702;28;20133;-74
2023/04/15 10:31:10;;;;;;;12.23;2.50;;;10.30;99.90;;;;;;5054007;28;20098;-71
2023/04/15 10:33:37;;;;;;;7.03;2.50;;;10.20;99.90;;;;;;5052771;28;20044;-73
2023/04/15 10:36:03;;;;;;;;;;;10.60;99.90;;;;;;5053740;28;20049;-79
2023/04/15 10:38:35;;;;;;;12.18;3.30;;;10.40;99.90;;;;;;5053143;28;19974;-73
2023/04/15 10:41:16;;;;;;;17.50;3.33;;;10.60;99.90;;;;;;5051790;28;20466;-74
2023/04/15 10:44:02;;;;;;;8.98;2.70;;;10.50;99.90;;;;;;5035650;28;20528;-74
2023/04/15 10:46:36;;;;;;;9.43;3.30;;;10.70;99.90;;;;;;5052301;28;20091;-74
2023/04/15 10:49:24;;;;;;;9.75;2.90;;;10.40;99.90;;;;;;5052823;28;20087;-72
2023/04/15 10:51:52;;;;;;;9.32;2.58;;;10.60;99.90;;;;;;5053752;28;20381;-73
2023/04/15 10:54:24;;;;;;;7.75;2.90;;;10.50;99.90;;;;;;5054437;28;20049;-73
2023/04/15 10:56:51;;;;;;;9.70;2.20;;;10.40;99.90;;;;;;5055824;28;20055;-74
2023/04/15 10:59:17;;;;;;;;;;;10.30;99.90;;;;;;5058538;28;20398;-74
2023/04/15 11:01:51;;;;;;;10.03;2.63;;;10.10;99.90;;;;;;5056048;28;19927;-72
2023/04/15 11:04:52;;;;;;;8.10;2.85;;;10.40;99.90;;;;;;5039200;28;20057;-76
2023/04/15 11:07:33;;;;;;;7.88;2.33;;;10.40;99.90;;;;;;5055517;28;20071;-78
2023/04/15 11:09:58;;;;;;;7.30;2.30;;;10.50;99.90;;;;;;5056911;28;20053;-74
2023/04/15 11:12:34;;;;;;;7.65;2.30;;;10.60;99.90;;;;;;5057026;28;20055;-72
2023/04/15 11:15:26;;;;;;;11.13;2.97;;;10.60;99.90;;;;;;5055715;28;20132;-73
2023/04/15 11:17:52;;;;;;;7.88;1.98;;;10.50;99.90;;;;;;5056949;28;20584;-74
2023/04/15 11:20:18;;;;;;;13.10;3.25;;;10.70;99.90;;;;;;5038744;28;20132;-74
2023/04/15 11:22:49;;;;;;;10.95;2.53;;;10.70;99.90;;;;;;5039489;28;20458;-74
2023/04/15 11:25:29;;;;;;;9.02;2.97;;;10.60;99.90;;;;;;5038956;28;20119;-73
2023/04/15 11:27:56;;;;;;;8.65;2.42;;;10.70;99.90;;;;;;5056242;28;20045;-75
2023/04/15 11:30:23;;;;;;;7.88;2.55;;;10.60;99.90;;;;;;5055540;28;20068;-74
2023/04/15 11:32:50;;;;;;;7.28;2.38;;;10.40;99.90;;;;;;5056281;28;20045;-73
2023/04/15 11:35:19;;;;;;;;;;;10.50;99.90;;;;;;5056190;28;20085;-74
2023/04/15 11:37:47;;;;;;;8.13;3.05;;;10.40;99.90;;;;;;5056322;28;19920;-75
2023/04/15 11:40:14;;;;;;;8.95;2.65;;;10.40;99.90;;;;;;5038580;28;20070;-77
2023/04/15 11:42:40;;;;;;;23.17;3.00;;;10.40;99.90;;;;;;5038357;28;20053;-74
2023/04/15 11:45:13;;;;;;;13.02;2.38;;;10.50;99.90;;;;;;5038178;28;20132;-75
2023/04/15 11:47:39;;;;;;;7.03;2.35;;;10.40;99.90;;;;;;5039236;28;20380;-74
2023/04/15 11:50:19;;;;;;;7.68;2.28;;;10.70;99.90;;;;;;5056328;28;20440;-75
2023/04/15 11:52:58;;;;;;;6.65;2.40;;;10.50;99.90;;;;;;5056424;28;20099;-73
2023/04/15 11:55:25;;;;;;;7.82;2.30;;;10.50;99.90;;;;;;5054598;28;20048;-75
2023/04/15 11:58:08;;;;;;;8.55;3.17;;;10.70;99.90;;;;;;5055625;28;20551;-73
2023/04/15 12:00:34;;;;;;;10.50;2.65;;;10.80;99.90;;;;;;5055660;28;20476;-74
2023/04/15 12:03:18;;;;;;;15.25;3.20;;;10.70;99.90;;;;;;5055600;28;20114;-74
2023/04/15 12:06:07;;;;;;;6.88;2.42;;;10.80;99.90;;;;;;5054697;28;20164;-74
2023/04/15 12:08:54;;;;;;;13.07;3.58;;;10.50;99.90;;;;;;5055807;28;20048;-75
2023/04/15 12:11:31;;;;;;;8.77;2.67;;;10.20;99.90;;;;;;5055366;28;20463;-74
2023/04/15 12:14:12;;;;;;;20.67;4.95;;;10.10;99.90;;;;;;5056149;28;20049;-72
2023/04/15 12:16:40;;;;;;;11.48;3.30;;;10.00;99.90;;;;;;5055512;28;20095;-74
2023/04/15 12:19:12;;;;;;;10.27;3.15;;;10.20;99.90;;;;;;5054120;28;20103;-73
2023/04/15 12:21:40;;;;;;;13.20;3.97;;;10.30;99.90;;;;;;5055342;28;20041;-74
2023/04/15 12:24:08;;;;;;;15.45;4.78;;;10.30;99.90;;;;;;5056338;28;20052;-75
2023/04/15 12:26:55;;;;;;;19.60;4.05;;;9.90;99.90;;;;;;5055290;28;20405;-75
2023/04/15 12:29:26;;;;;;;12.15;3.80;;;10.10;99.90;;;;;;5053659;28;20049;-75
2023/04/15 12:32:06;;;;;;;13.45;4.05;;;10.20;99.90;;;;;;5055376;28;20399;-76
2023/04/15 12:34:35;;;;;;;20.13;4.82;;;10.00;99.90;;;;;;5055963;28;20045;-72
2023/04/15 12:37:03;;;;;;;22.90;5.45;;;9.90;99.90;;;;;;5054888;28;20583;-75
2023/04/15 12:39:31;;;;;;;15.40;3.85;;;10.00;99.90;;;;;;5053891;28;20489;-74
2023/04/15 12:41:59;;;;;;;15.65;4.35;;;10.10;99.90;;;;;;5054597;28;20127;-74
2023/04/15 12:44:25;;;;;;;11.38;3.08;;;10.10;99.90;;;;;;5054845;28;20053;-74